createdAt,value
2017-10-18T00:00:58.946Z,21.97
2017-10-18T00:03:26.443Z,21.90
2017-10-18T00:05:54.731Z,21.90
2017-10-18T00:08:22.931Z,22.20
2017-10-18T00:10:51.232Z,21.47
2017-10-18T00:13:18.736Z,22.47
2017-10-18T00:15:46.271Z,23.83
2017-10-18T00:18:13.770Z,23.57
2017-10-18T00:20:42.081Z,21.40
2017-10-18T00:23:09.615Z,21.97
2017-10-18T00:25:37.886Z,21.87
2017-10-18T00:28:05.420Z,20.23
2017-10-18T00:30:32.919Z,21.50
2017-10-18T00:33:01.219Z,19.53
2017-10-18T00:35:28.736Z,19.23
2017-10-18T00:37:56.263Z,20.13
2017-10-18T00:40:23.767Z,19.40
2017-10-18T00:42:51.304Z,19.73
2017-10-18T00:45:18.823Z,17.90
2017-10-18T00:47:46.353Z,18.43
2017-10-18T00:50:13.863Z,18.70
2017-10-18T00:52:41.401Z,19.10
2017-10-18T00:55:08.919Z,21.80
2017-10-18T00:57:37.213Z,21.10
2017-10-18T01:00:04.732Z,19.30
2017-10-18T01:02:32.262Z,19.40
2017-10-18T01:04:59.775Z,19.03
2017-10-18T01:07:28.079Z,19.03
2017-10-18T01:09:55.599Z,18.70
2017-10-18T01:12:23.896Z,17.73
2017-10-18T01:14:51.412Z,18.13
2017-10-18T01:17:18.950Z,17.27
2017-10-18T01:19:46.467Z,15.17
2017-10-18T01:22:14.013Z,16.63
2017-10-18T01:24:42.290Z,17.27
2017-10-18T01:27:09.810Z,17.03
2017-10-18T01:29:37.311Z,16.13
2017-10-18T01:32:05.835Z,18.27
2017-10-18T01:34:33.356Z,16.10
2017-10-18T01:37:01.651Z,17.63
2017-10-18T01:39:29.162Z,17.97
2017-10-18T01:41:56.715Z,18.33
2017-10-18T01:44:24.235Z,17.67
2017-10-18T01:46:51.772Z,17.10
2017-10-18T01:49:20.055Z,17.70
2017-10-18T01:51:47.588Z,16.70
2017-10-18T01:54:15.090Z,16.40
2017-10-18T01:56:42.622Z,17.97
2017-10-18T01:59:10.898Z,18.93
2017-10-18T02:01:39.203Z,19.90
2017-10-18T02:04:06.719Z,19.47
2017-10-18T02:06:34.251Z,18.80
2017-10-18T02:09:01.768Z,20.03
2017-10-18T02:11:29.308Z,20.53
2017-10-18T02:13:57.584Z,18.77
2017-10-18T02:16:25.878Z,19.50
2017-10-18T02:18:53.393Z,19.50
2017-10-18T02:21:20.966Z,19.23
2017-10-18T02:23:48.484Z,19.17
2017-10-18T02:26:16.024Z,18.40
2017-10-18T02:28:43.532Z,20.70
2017-10-18T02:31:11.072Z,21.07
2017-10-18T02:33:38.589Z,22.13
2017-10-18T02:36:06.132Z,19.47
2017-10-18T02:38:33.640Z,18.97
2017-10-18T02:41:01.176Z,19.77
2017-10-18T02:43:28.688Z,21.73
2017-10-18T02:45:56.213Z,21.00
2017-10-18T02:48:23.725Z,19.93
2017-10-18T02:50:52.031Z,18.37
2017-10-18T02:53:19.535Z,19.60
2017-10-18T02:55:47.067Z,20.73
2017-10-18T02:58:14.561Z,18.97
2017-10-18T03:00:42.074Z,19.13
2017-10-18T03:03:09.572Z,19.43
2017-10-18T03:05:37.094Z,20.03
2017-10-18T03:08:04.586Z,20.77
2017-10-18T03:10:32.106Z,19.80
2017-10-18T03:12:59.614Z,19.60
2017-10-18T03:15:27.150Z,19.87
2017-10-18T03:17:54.914Z,18.77
2017-10-18T03:20:23.201Z,18.57
2017-10-18T03:22:50.697Z,17.73
2017-10-18T03:25:18.218Z,16.73
2017-10-18T03:27:45.710Z,15.53
2017-10-18T03:30:13.995Z,15.73
2017-10-18T03:32:41.490Z,15.57
2017-10-18T03:35:09.002Z,16.77
2017-10-18T03:37:37.261Z,15.37
2017-10-18T03:40:04.782Z,15.80
2017-10-18T03:42:32.273Z,16.17
2017-10-18T03:44:59.785Z,15.10
2017-10-18T03:47:27.274Z,15.17
2017-10-18T03:49:54.939Z,16.00
2017-10-18T03:52:22.446Z,16.10
2017-10-18T03:54:49.957Z,17.70
2017-10-18T03:57:17.450Z,18.17
2017-10-18T03:59:45.737Z,18.43
2017-10-18T04:02:13.238Z,17.70
2017-10-18T04:04:40.750Z,16.37
2017-10-18T04:07:08.241Z,16.77
2017-10-18T04:09:35.774Z,16.40
2017-10-18T04:12:03.279Z,16.57
2017-10-18T04:14:30.790Z,17.80
2017-10-18T04:16:58.281Z,17.20
2017-10-18T04:19:25.813Z,16.97
2017-10-18T04:21:53.309Z,16.40
2017-10-18T04:24:20.822Z,18.47
2017-10-18T04:26:48.313Z,18.37
2017-10-18T04:29:15.839Z,17.27
2017-10-18T04:31:43.330Z,17.97
2017-10-18T04:34:10.872Z,16.20
2017-10-18T04:36:38.362Z,16.30
2017-10-18T04:39:05.893Z,16.60
2017-10-18T04:41:33.385Z,17.13
2017-10-18T04:44:00.874Z,16.97
2017-10-18T04:46:29.158Z,17.47
2017-10-18T04:48:56.650Z,17.07
2017-10-18T04:51:24.161Z,17.30
2017-10-18T04:53:52.428Z,17.57
2017-10-18T04:56:19.938Z,17.40
2017-10-18T04:58:47.430Z,18.40
2017-10-18T05:01:14.950Z,18.73
2017-10-18T05:03:42.443Z,17.93
2017-10-18T05:06:09.957Z,17.50
2017-10-18T05:08:38.302Z,18.73
2017-10-18T05:11:06.593Z,17.60
2017-10-18T05:13:34.847Z,18.50
2017-10-18T05:16:03.130Z,18.53
2017-10-18T05:18:31.385Z,17.70
2017-10-18T05:20:58.918Z,18.87
2017-10-18T05:23:26.410Z,18.20
2017-10-18T05:25:53.925Z,19.10
2017-10-18T05:28:21.423Z,16.83
2017-10-18T05:30:48.938Z,17.80
2017-10-18T05:33:16.431Z,18.50
2017-10-18T05:35:43.947Z,18.27
2017-10-18T05:38:11.446Z,19.37
2017-10-18T05:40:38.958Z,19.37
2017-10-18T05:43:06.449Z,18.67
2017-10-18T05:45:33.959Z,18.07
2017-10-18T05:48:01.466Z,19.00
2017-10-18T05:50:28.978Z,19.63
2017-10-18T05:52:57.238Z,18.03
2017-10-18T05:55:25.523Z,17.37
2017-10-18T05:58:09.458Z,19.37
2017-10-18T06:00:36.969Z,20.00
2017-10-18T06:03:04.473Z,19.00
2017-10-18T06:05:31.985Z,19.23
2017-10-18T06:07:59.475Z,20.00
2017-10-18T06:10:26.998Z,19.30
2017-10-18T06:12:54.489Z,20.70
2017-10-18T06:15:22.007Z,20.10
2017-10-18T06:17:49.502Z,18.63
2017-10-18T06:20:17.018Z,20.20
2017-10-18T06:22:44.514Z,18.70
2017-10-18T06:25:12.026Z,20.30
2017-10-18T06:27:39.522Z,20.13
2017-10-18T06:30:07.034Z,19.20
2017-10-18T06:32:34.546Z,21.00
2017-10-18T06:35:02.823Z,21.10
2017-10-18T06:37:31.081Z,20.63
2017-10-18T06:39:58.599Z,22.50
2017-10-18T06:42:26.098Z,21.90
2017-10-18T06:44:54.378Z,20.53
2017-10-18T06:47:22.634Z,20.37
2017-10-18T06:49:50.171Z,20.93
2017-10-18T06:52:17.666Z,19.50
2017-10-18T06:54:45.178Z,20.00
2017-10-18T06:57:12.674Z,19.50
2017-10-18T06:59:40.974Z,19.63
2017-10-18T07:02:09.234Z,19.30
2017-10-18T07:04:36.754Z,20.63
2017-10-18T07:07:04.251Z,20.27
2017-10-18T07:09:31.782Z,20.60
2017-10-18T07:11:59.275Z,21.20
2017-10-18T07:14:26.789Z,21.20
2017-10-18T07:16:54.286Z,21.70
2017-10-18T07:19:21.806Z,21.17
2017-10-18T07:21:49.303Z,22.10
2017-10-18T07:24:16.822Z,21.10
2017-10-18T07:26:44.332Z,21.20
2017-10-18T07:29:11.879Z,19.77
2017-10-18T07:31:39.369Z,21.50
2017-10-18T07:34:06.895Z,20.83
2017-10-18T07:36:34.390Z,21.90
2017-10-18T07:39:01.922Z,21.13
2017-10-18T07:41:29.419Z,21.33
2017-10-18T07:43:56.929Z,21.13
2017-10-18T07:46:24.421Z,21.43
2017-10-18T07:48:52.716Z,24.10
2017-10-18T07:51:20.214Z,22.10
2017-10-18T07:53:47.725Z,22.47
2017-10-18T07:56:15.219Z,22.90
2017-10-18T07:58:42.739Z,22.80
2017-10-18T08:01:10.233Z,23.13
2017-10-18T08:03:38.514Z,44.77
2017-10-18T08:06:06.009Z,28.57
2017-10-18T08:08:34.270Z,23.97
2017-10-18T08:11:01.789Z,24.43
2017-10-18T08:13:29.281Z,24.17
2017-10-18T08:15:56.794Z,23.73
2017-10-18T08:18:24.290Z,23.73
2017-10-18T08:20:51.814Z,25.30
2017-10-18T08:23:19.306Z,25.07
2017-10-18T08:25:46.822Z,25.33
2017-10-18T08:28:14.318Z,24.70
2017-10-18T08:30:41.834Z,24.33
2017-10-18T08:33:09.334Z,25.60
2017-10-18T08:35:36.854Z,23.30
2017-10-18T08:38:04.350Z,23.60
2017-10-18T08:40:31.862Z,24.13
2017-10-18T08:42:59.369Z,25.03
2017-10-18T08:45:26.882Z,24.97
2017-10-18T08:47:54.423Z,23.27
2017-10-18T08:50:21.945Z,24.17
2017-10-18T08:52:49.439Z,25.50
2017-10-18T08:55:16.959Z,24.53
2017-10-18T08:57:44.454Z,22.80
2017-10-18T09:00:12.650Z,24.90
2017-10-18T09:02:40.262Z,23.50
2017-10-18T09:05:07.777Z,24.20
2017-10-18T09:07:35.269Z,23.30
2017-10-18T09:10:02.786Z,24.07
2017-10-18T09:12:30.278Z,24.23
2017-10-18T09:14:57.795Z,25.97
2017-10-18T09:17:25.298Z,24.90
2017-10-18T09:19:52.811Z,26.00
2017-10-18T09:22:21.070Z,25.27
2017-10-18T09:24:48.581Z,27.20
2017-10-18T09:27:16.079Z,25.40
2017-10-18T09:29:43.590Z,26.67
2017-10-18T09:32:11.082Z,26.30
2017-10-18T09:34:38.594Z,26.60
2017-10-18T09:37:06.849Z,28.73
2017-10-18T09:39:35.134Z,27.90
2017-10-18T09:42:03.398Z,26.73
2017-10-18T09:44:31.681Z,27.70
2017-10-18T09:46:59.182Z,28.13
2017-10-18T09:49:26.694Z,27.93
2017-10-18T09:51:54.185Z,26.70
2017-10-18T09:54:21.698Z,27.37
2017-10-18T09:56:49.194Z,28.53
2017-10-18T09:59:16.706Z,29.77
2017-10-18T10:01:44.974Z,29.30
2017-10-18T10:04:13.254Z,27.70
2017-10-18T10:06:41.526Z,28.67
2017-10-18T10:09:09.809Z,29.67
2017-10-18T10:11:37.306Z,30.93
2017-10-18T10:14:05.586Z,29.20
2017-10-18T10:16:33.847Z,30.60
2017-10-18T10:19:01.377Z,30.13
2017-10-18T10:21:28.874Z,29.37
2017-10-18T10:23:56.386Z,29.23
2017-10-18T10:26:23.882Z,29.53
2017-10-18T10:28:51.393Z,29.10
2017-10-18T10:31:18.885Z,30.10
2017-10-18T10:33:46.394Z,31.27
2017-10-18T10:36:14.650Z,29.93
2017-10-18T10:38:42.174Z,30.33
2017-10-18T10:41:09.665Z,30.57
2017-10-18T10:43:37.182Z,31.37
2017-10-18T10:46:04.683Z,31.17
2017-10-18T10:48:32.202Z,29.77
2017-10-18T10:50:59.693Z,29.97
2017-10-18T10:53:27.206Z,29.40
2017-10-18T10:55:54.698Z,29.10
2017-10-18T10:58:22.217Z,28.63
2017-10-18T11:00:49.710Z,29.30
2017-10-18T11:03:17.222Z,27.97
2017-10-18T11:05:44.714Z,26.97
2017-10-18T11:08:12.206Z,26.77
2017-10-18T11:10:39.722Z,26.83
2017-10-18T11:13:07.978Z,27.97
2017-10-18T11:15:35.490Z,26.30
2017-10-18T11:18:02.986Z,24.97
2017-10-18T11:20:30.497Z,25.67
2017-10-18T11:22:57.986Z,26.23
2017-10-18T11:25:25.513Z,26.17
2017-10-18T11:27:53.005Z,26.00
2017-10-18T11:30:20.520Z,25.53
2017-10-18T11:32:48.014Z,25.00
2017-10-18T11:35:15.530Z,24.20
2017-10-18T11:37:43.785Z,23.40
2017-10-18T11:40:11.302Z,25.23
2017-10-18T11:42:38.793Z,25.80
2017-10-18T11:45:06.309Z,26.13
2017-10-18T11:47:33.802Z,25.23
2017-10-18T11:50:01.317Z,25.27
2017-10-18T11:52:28.826Z,26.50
2017-10-18T11:54:56.342Z,25.23
2017-10-18T11:57:23.834Z,25.30
2017-10-18T11:59:51.348Z,26.57
2017-10-18T12:02:18.841Z,25.43
2017-10-18T12:04:47.118Z,26.50
2017-10-18T12:07:14.634Z,26.00
2017-10-18T12:09:42.145Z,25.83
2017-10-18T12:12:09.642Z,25.07
2017-10-18T12:14:37.158Z,25.17
2017-10-18T12:17:05.422Z,23.87
2017-10-18T12:19:32.944Z,23.50
2017-10-18T12:22:00.443Z,23.93
2017-10-18T12:24:27.958Z,23.40
2017-10-18T12:26:55.450Z,23.53
2017-10-18T12:29:22.963Z,22.50
2017-10-18T12:31:50.454Z,23.03
2017-10-18T12:34:17.970Z,23.30
2017-10-18T12:36:45.955Z,23.57
2017-10-18T12:39:13.470Z,23.47
2017-10-18T12:41:40.962Z,22.40
2017-10-18T12:44:08.475Z,24.70
2017-10-18T12:46:35.971Z,21.17
2017-10-18T12:49:03.486Z,21.63
2017-10-18T12:51:30.978Z,23.00
2017-10-18T12:53:59.258Z,22.80
2017-10-18T12:56:27.513Z,21.77
2017-10-18T12:58:55.026Z,20.00
2017-10-18T13:01:22.518Z,19.83
2017-10-18T13:03:50.035Z,18.63
2017-10-18T13:06:17.522Z,18.37
2017-10-18T13:08:45.040Z,15.67
2017-10-18T13:11:12.543Z,15.47
2017-10-18T13:13:40.063Z,12.70
2017-10-18T13:16:07.562Z,13.20
2017-10-18T13:18:35.074Z,12.40
2017-10-18T13:21:02.566Z,12.00
2017-10-18T13:23:30.082Z,12.57
2017-10-18T13:25:57.586Z,13.77
2017-10-18T13:28:25.101Z,13.73
2017-10-18T13:30:52.591Z,13.03
2017-10-18T13:33:20.109Z,11.83
2017-10-18T13:35:47.610Z,11.87
2017-10-18T13:38:15.122Z,12.30
2017-10-18T13:40:43.377Z,11.50
2017-10-18T13:43:10.900Z,11.50
2017-10-18T13:45:38.391Z,10.90
2017-10-18T13:48:05.910Z,11.13
2017-10-18T13:50:33.410Z,10.97
2017-10-18T13:53:00.922Z,10.97
2017-10-18T13:55:28.409Z,9.93
2017-10-18T13:57:55.923Z,10.53
2017-10-18T14:00:23.413Z,10.10
2017-10-18T14:02:50.933Z,11.20
2017-10-18T14:05:18.429Z,10.27
2017-10-18T14:07:45.945Z,11.93
2017-10-18T14:10:14.198Z,11.00
2017-10-18T14:12:41.720Z,11.20
2017-10-18T14:15:09.214Z,11.03
2017-10-18T14:17:36.726Z,11.37
2017-10-18T14:20:04.219Z,11.30
2017-10-18T14:22:31.730Z,37.77
2017-10-18T14:24:59.230Z,97.20
2017-10-18T14:27:26.742Z,11.60
2017-10-18T14:29:54.246Z,10.97
2017-10-18T14:32:21.764Z,11.03
2017-10-18T14:34:49.254Z,11.23
2017-10-18T14:37:16.766Z,11.30
2017-10-18T14:39:44.258Z,11.50
2017-10-18T14:42:11.782Z,10.53
2017-10-18T14:44:39.276Z,9.83
2017-10-18T14:47:06.790Z,10.83
2017-10-18T14:49:34.281Z,12.80
2017-10-18T14:52:01.780Z,12.23
2017-10-18T14:54:29.294Z,10.43
2017-10-18T14:56:56.790Z,10.60
2017-10-18T14:59:24.310Z,11.90
2017-10-18T15:01:51.805Z,10.80
2017-10-18T15:04:19.334Z,11.73
2017-10-18T15:06:46.826Z,10.03
2017-10-18T15:09:14.342Z,10.30
2017-10-18T15:11:41.833Z,10.20
2017-10-18T15:14:09.346Z,10.67
2017-10-18T15:16:36.847Z,10.87
2017-10-18T15:19:04.358Z,13.73
2017-10-18T15:21:31.858Z,10.87
2017-10-18T15:23:59.374Z,10.60
2017-10-18T15:26:26.882Z,10.20
2017-10-18T15:28:54.394Z,10.10
2017-10-18T15:31:21.885Z,10.00
2017-10-18T15:33:49.402Z,11.17
2017-10-18T15:36:17.657Z,9.93
2017-10-18T15:38:45.178Z,10.23
2017-10-18T15:41:12.670Z,9.33
2017-10-18T15:43:40.194Z,10.07
2017-10-18T15:46:07.685Z,11.07
2017-10-18T15:48:35.197Z,13.90
2017-10-18T15:51:02.695Z,14.63
2017-10-18T15:53:30.207Z,15.17
2017-10-18T15:55:57.697Z,15.97
2017-10-18T15:58:25.209Z,17.40
2017-10-18T16:00:52.701Z,20.33
2017-10-18T16:03:20.209Z,21.83
2017-10-18T16:05:48.466Z,23.17
2017-10-18T16:08:15.983Z,25.47
2017-10-18T16:10:43.482Z,25.80
2017-10-18T16:13:10.994Z,25.20
2017-10-18T16:15:38.486Z,26.90
2017-10-18T16:18:05.998Z,26.17
2017-10-18T16:20:33.490Z,25.20
2017-10-18T16:23:01.002Z,25.57
2017-10-18T16:25:29.263Z,23.90
2017-10-18T16:27:56.778Z,25.23
2017-10-18T16:30:24.274Z,26.43
2017-10-18T16:32:51.786Z,26.20
2017-10-18T16:35:19.282Z,25.53
2017-10-18T16:37:46.794Z,26.73
2017-10-18T16:40:14.291Z,26.77
2017-10-18T16:42:41.806Z,26.00
2017-10-18T16:45:09.303Z,26.27
2017-10-18T16:47:36.822Z,27.10
2017-10-18T16:50:04.322Z,28.93
2017-10-18T16:52:31.837Z,28.00
2017-10-18T16:54:59.334Z,26.50
2017-10-18T16:57:26.850Z,27.87
2017-10-18T16:59:54.342Z,27.50
2017-10-18T17:02:21.863Z,31.43
2017-10-18T17:04:49.366Z,28.30
2017-10-18T17:07:16.883Z,27.50
2017-10-18T17:09:44.390Z,26.90
2017-10-18T17:12:11.907Z,29.17
2017-10-18T17:14:39.410Z,29.53
2017-10-18T17:17:06.926Z,28.10
2017-10-18T17:19:34.418Z,28.50
2017-10-18T17:22:01.937Z,29.90
2017-10-18T17:24:29.429Z,30.50
2017-10-18T17:26:56.942Z,28.67
2017-10-18T17:29:25.198Z,29.07
2017-10-18T17:31:52.710Z,30.57
2017-10-18T17:34:20.202Z,29.20
2017-10-18T17:36:47.774Z,29.20
2017-10-18T17:39:15.275Z,28.27
2017-10-18T17:41:42.790Z,30.13
2017-10-18T17:44:10.286Z,30.47
2017-10-18T17:46:37.803Z,28.43
2017-10-18T17:49:05.303Z,28.80
2017-10-18T17:51:32.829Z,28.77
2017-10-18T17:54:01.096Z,27.37
2017-10-18T17:56:28.610Z,28.90
2017-10-18T17:58:56.106Z,28.40
2017-10-18T18:01:23.617Z,29.00
2017-10-18T18:03:51.117Z,29.60
2017-10-18T18:06:18.638Z,26.77
2017-10-18T18:08:46.134Z,26.80
2017-10-18T18:11:14.410Z,26.27
2017-10-18T18:13:42.670Z,25.23
2017-10-18T18:16:10.952Z,26.00
2017-10-18T18:18:39.222Z,25.83
2017-10-18T18:21:07.501Z,25.17
2017-10-18T18:23:34.998Z,26.00
2017-10-18T18:26:03.278Z,26.20
2017-10-18T18:28:31.544Z,27.43
2017-10-18T18:30:59.063Z,26.70
2017-10-18T18:33:26.554Z,24.83
2017-10-18T18:35:54.075Z,22.93
2017-10-18T18:38:21.595Z,22.27
2017-10-18T18:40:49.883Z,22.10
2017-10-18T18:43:17.400Z,23.03
2017-10-18T18:45:44.910Z,21.87
2017-10-18T18:48:12.414Z,21.57
2017-10-18T18:50:39.915Z,21.77
2017-10-18T18:53:07.458Z,21.57
2017-10-18T18:55:34.954Z,20.70
2017-10-18T18:58:02.486Z,19.63
2017-10-18T19:00:29.987Z,19.13
2017-10-18T19:02:58.275Z,19.23
2017-10-18T19:05:26.538Z,18.40
2017-10-18T19:07:54.830Z,19.57
2017-10-18T19:10:23.094Z,19.30
2017-10-18T19:12:51.379Z,18.53
2017-10-18T19:15:18.887Z,19.60
2017-10-18T19:17:46.402Z,19.80
2017-10-18T19:20:14.666Z,19.53
2017-10-18T19:22:42.972Z,20.17
2017-10-18T19:25:10.470Z,19.53
2017-10-18T19:27:38.768Z,19.13
2017-10-18T19:30:06.274Z,20.50
2017-10-18T19:32:33.798Z,21.50
2017-10-18T19:35:02.059Z,22.17
2017-10-18T19:37:29.582Z,22.33
2017-10-18T19:39:57.078Z,23.10
2017-10-18T19:42:24.610Z,22.37
2017-10-18T19:44:52.103Z,21.40
2017-10-18T19:47:19.623Z,21.07
2017-10-18T19:49:47.118Z,21.00
2017-10-18T19:52:14.646Z,19.77
2017-10-18T19:54:42.906Z,20.17
2017-10-18T19:57:11.194Z,21.30
2017-10-18T19:59:39.460Z,21.07
2017-10-18T20:02:07.747Z,21.17
2017-10-18T20:04:36.006Z,20.67
2017-10-18T20:07:04.296Z,20.00
2017-10-18T20:09:32.567Z,19.50
2017-10-18T20:12:00.852Z,20.30
2017-10-18T20:14:28.346Z,21.50
2017-10-18T20:16:55.871Z,19.40
2017-10-18T20:19:23.383Z,19.50
2017-10-18T20:21:51.670Z,21.10
2017-10-18T20:24:19.162Z,19.50
2017-10-18T20:26:46.673Z,19.80
2017-10-18T20:29:14.278Z,20.40
2017-10-18T20:31:41.885Z,20.97
2017-10-18T20:34:09.409Z,19.40
2017-10-18T20:36:36.926Z,19.30
2017-10-18T20:39:04.425Z,19.83
2017-10-18T20:41:31.953Z,19.60
2017-10-18T20:43:59.445Z,19.63
2017-10-18T20:46:26.958Z,19.13
2017-10-18T20:48:54.459Z,19.13
2017-10-18T20:51:22.741Z,18.70
2017-10-18T20:53:50.237Z,20.83
2017-10-18T20:56:17.754Z,21.93
2017-10-18T20:58:46.052Z,21.80
2017-10-18T21:01:13.566Z,23.60
2017-10-18T21:03:41.063Z,22.60
2017-10-18T21:06:08.644Z,24.80
2017-10-18T21:08:36.165Z,26.83
2017-10-18T21:11:04.463Z,28.30
2017-10-18T21:13:32.730Z,30.23
2017-10-18T21:16:01.025Z,27.70
2017-10-18T21:18:28.526Z,28.97
2017-10-18T21:20:56.066Z,29.20
2017-10-18T21:23:23.567Z,28.23
2017-10-18T21:25:51.082Z,29.17
2017-10-18T21:28:18.610Z,28.17
2017-10-18T21:30:46.930Z,28.10
2017-10-18T21:33:14.410Z,28.83
2017-10-18T21:35:41.925Z,36.87
2017-10-18T21:38:09.714Z,26.77
2017-10-18T21:40:37.226Z,25.80
2017-10-18T21:43:05.483Z,25.97
2017-10-18T21:45:33.007Z,25.17
2017-10-18T21:48:00.507Z,25.90
2017-10-18T21:50:28.786Z,26.80
2017-10-18T21:52:57.046Z,25.80
2017-10-18T21:55:24.569Z,25.50
2017-10-18T21:57:52.062Z,25.80
2017-10-18T22:00:20.342Z,26.80
2017-10-18T22:02:48.603Z,24.90
2017-10-18T22:05:16.118Z,24.80
2017-10-18T22:07:43.617Z,26.90
2017-10-18T22:10:11.135Z,26.13
2017-10-18T22:12:38.631Z,25.10
2017-10-18T22:15:06.146Z,25.07
2017-10-18T22:17:33.650Z,26.40
2017-10-18T22:20:01.167Z,24.93
2017-10-18T22:22:28.675Z,24.40
2017-10-18T22:24:56.199Z,23.40
2017-10-18T22:27:23.714Z,25.67
2017-10-18T22:29:51.239Z,24.50
2017-10-18T22:32:18.739Z,23.73
2017-10-18T22:34:46.258Z,23.80
2017-10-18T22:37:13.758Z,23.70
2017-10-18T22:39:41.279Z,24.63
2017-10-18T22:42:08.798Z,25.20
2017-10-18T22:44:36.345Z,23.57
2017-10-18T22:47:03.872Z,24.10
2017-10-18T22:49:32.160Z,23.63
2017-10-18T22:52:00.430Z,23.40
2017-10-18T22:54:28.719Z,18.73
2017-10-18T22:56:57.061Z,18.50
2017-10-18T22:59:24.591Z,19.70
2017-10-18T23:01:52.105Z,18.10
2017-10-18T23:04:19.626Z,19.97
2017-10-18T23:06:48.643Z,20.40
2017-10-18T23:09:16.958Z,20.60
2017-10-18T23:11:44.483Z,21.33
2017-10-18T23:14:12.746Z,22.10
2017-10-18T23:16:40.269Z,23.20
2017-10-18T23:19:07.767Z,25.03
2017-10-18T23:21:36.050Z,24.70
2017-10-18T23:24:04.318Z,24.77
2017-10-18T23:26:31.838Z,26.60
2017-10-18T23:28:59.330Z,26.57
2017-10-18T23:31:26.846Z,25.10
2017-10-18T23:33:54.341Z,25.23
2017-10-18T23:36:21.863Z,25.77
2017-10-18T23:38:49.375Z,25.13
2017-10-18T23:41:16.894Z,22.90
2017-10-18T23:43:44.386Z,23.73
2017-10-18T23:46:11.903Z,23.10
2017-10-18T23:48:39.394Z,23.87
2017-10-18T23:51:06.915Z,24.33
2017-10-18T23:53:34.410Z,24.10
2017-10-18T23:56:01.921Z,25.30
2017-10-18T23:58:29.415Z,24.30
